createdAt,value
2023-03-22T00:00:01.238Z,7.15
2023-03-22T00:02:30.488Z,7.17
2023-03-22T00:04:57.833Z,7.14
2023-03-22T00:07:26.527Z,7.16
2023-03-22T00:09:53.888Z,7.08
2023-03-22T00:12:21.164Z,7.06
2023-03-22T00:14:49.498Z,6.93
2023-03-22T00:17:16.793Z,6.86
2023-03-22T00:19:45.152Z,6.75
2023-03-22T00:22:14.703Z,6.64
2023-03-22T00:24:42.069Z,6.57
2023-03-22T00:27:09.404Z,6.65
2023-03-22T00:29:36.809Z,6.64
2023-03-22T00:32:04.362Z,6.60
2023-03-22T00:34:33.439Z,6.48
2023-03-22T00:37:00.767Z,6.40
2023-03-22T00:39:28.499Z,6.27
2023-03-22T00:41:55.917Z,6.14
2023-03-22T00:44:23.287Z,5.99
2023-03-22T00:46:50.693Z,5.88
2023-03-22T00:49:18.923Z,6.04
2023-03-22T00:51:46.550Z,5.98
2023-03-22T00:54:13.994Z,5.83
2023-03-22T00:56:45.352Z,5.94
2023-03-22T00:59:14.832Z,6.14
2023-03-22T01:01:43.898Z,6.37
2023-03-22T01:04:15.445Z,6.05
2023-03-22T01:06:42.822Z,5.86
2023-03-22T01:09:14.903Z,5.69
2023-03-22T01:11:45.394Z,5.64
2023-03-22T01:14:13.879Z,5.65
2023-03-22T01:16:41.457Z,5.58
2023-03-22T01:19:09.318Z,5.51
2023-03-22T01:21:36.962Z,5.53
2023-03-22T01:24:04.756Z,5.58
2023-03-22T01:26:32.191Z,5.50
2023-03-22T01:28:59.684Z,5.48
2023-03-22T01:31:27.387Z,5.52
2023-03-22T01:33:54.871Z,5.48
2023-03-22T01:36:23.479Z,5.45
2023-03-22T01:38:50.959Z,5.43
2023-03-22T01:41:20.260Z,5.33
2023-03-22T01:44:29.906Z,5.29
2023-03-22T01:46:58.376Z,5.29
2023-03-22T01:49:26.135Z,5.20
2023-03-22T01:51:55.308Z,5.30
2023-03-22T01:54:53.509Z,5.33
2023-03-22T01:57:39.281Z,5.49
2023-03-22T02:00:18.915Z,5.40
2023-03-22T02:03:07.231Z,5.52
2023-03-22T02:05:40.960Z,5.24
2023-03-22T02:08:08.844Z,5.15
2023-03-22T02:10:55.712Z,5.42
2023-03-22T02:13:53.918Z,5.38
2023-03-22T02:16:53.874Z,5.55
2023-03-22T02:19:29.365Z,5.22
2023-03-22T02:22:32.078Z,4.97
2023-03-22T02:25:18.581Z,4.77
2023-03-22T02:27:56.893Z,4.92
2023-03-22T02:30:45.684Z,4.75
2023-03-22T02:33:18.993Z,4.68
2023-03-22T02:36:30.918Z,4.64
2023-03-22T02:39:08.070Z,4.83
2023-03-22T02:42:26.189Z,4.64
2023-03-22T02:45:06.434Z,4.52
2023-03-22T02:47:49.787Z,4.61
2023-03-22T02:50:38.301Z,4.56
2023-03-22T02:53:21.574Z,4.53
2023-03-22T02:56:11.394Z,4.40
2023-03-22T02:58:45.882Z,4.64
2023-03-22T03:01:30.809Z,4.62
2023-03-22T03:04:01.102Z,4.77
2023-03-22T03:06:31.092Z,4.94
2023-03-22T03:09:02.683Z,4.86
2023-03-22T03:11:32.240Z,4.86
2023-03-22T03:14:00.350Z,4.63
2023-03-22T03:16:34.546Z,4.49
2023-03-22T03:19:32.481Z,4.47
2023-03-22T03:22:09.759Z,4.39
2023-03-22T03:24:40.475Z,4.42
2023-03-22T03:27:27.415Z,4.32
2023-03-22T03:30:03.062Z,4.50
2023-03-22T03:32:42.016Z,4.42
2023-03-22T03:35:23.376Z,4.53
2023-03-22T03:38:12.113Z,4.33
2023-03-22T03:41:06.899Z,4.33
2023-03-22T03:43:35.111Z,4.18
2023-03-22T03:46:02.753Z,4.15
2023-03-22T03:48:32.389Z,4.17
2023-03-22T03:51:01.785Z,4.09
2023-03-22T03:53:30.149Z,4.09
2023-03-22T03:55:57.777Z,4.05
2023-03-22T03:58:27.151Z,3.82
2023-03-22T04:00:54.632Z,3.94
2023-03-22T04:03:55.356Z,3.93
2023-03-22T04:06:44.997Z,3.70
2023-03-22T04:09:17.539Z,3.58
2023-03-22T04:11:49.360Z,3.76
2023-03-22T04:14:18.247Z,3.70
2023-03-22T04:16:48.561Z,4.03
2023-03-22T04:19:20.742Z,3.89
2023-03-22T04:21:48.177Z,4.03
2023-03-22T04:24:16.134Z,4.23
2023-03-22T04:26:46.468Z,4.03
2023-03-22T04:29:19.772Z,3.95
2023-03-22T04:31:53.031Z,3.92
2023-03-22T04:34:27.064Z,3.82
2023-03-22T04:36:57.870Z,3.78
2023-03-22T04:39:30.401Z,3.46
2023-03-22T04:42:36.039Z,3.26
2023-03-22T04:45:29.162Z,3.05
2023-03-22T04:48:00.911Z,2.99
2023-03-22T04:50:28.271Z,2.98
2023-03-22T04:52:59.812Z,2.97
2023-03-22T04:55:27.541Z,2.94
2023-03-22T04:57:54.760Z,2.95
2023-03-22T05:00:24.219Z,2.86
2023-03-22T05:02:52.188Z,2.78
2023-03-22T05:05:32.913Z,2.73
2023-03-22T05:08:01.747Z,2.98
2023-03-22T05:10:28.804Z,2.84
2023-03-22T05:12:57.603Z,2.79
2023-03-22T05:15:28.646Z,2.76
2023-03-22T05:17:55.885Z,2.71
2023-03-22T05:20:24.927Z,2.68
2023-03-22T05:23:05.385Z,2.60
2023-03-22T05:25:33.682Z,2.80
2023-03-22T05:28:03.236Z,3.01
2023-03-22T05:30:57.307Z,3.13
2023-03-22T05:33:39.206Z,2.90
2023-03-22T05:36:11.209Z,2.95
2023-03-22T05:38:49.789Z,3.01
2023-03-22T05:41:17.043Z,3.06
2023-03-22T05:43:43.991Z,3.19
2023-03-22T05:46:12.529Z,3.47
2023-03-22T05:48:51.987Z,3.53
2023-03-22T05:51:19.970Z,3.71
2023-03-22T05:53:51.673Z,3.74
2023-03-22T05:56:24.352Z,4.00
2023-03-22T05:58:55.082Z,4.26
2023-03-22T06:01:23.139Z,4.10
2023-03-22T06:04:20.981Z,4.37
2023-03-22T06:07:10.883Z,4.61
2023-03-22T06:09:49.479Z,4.91
2023-03-22T06:12:24.648Z,5.04
2023-03-22T06:15:12.546Z,5.44
2023-03-22T06:17:48.798Z,5.90
2023-03-22T06:20:20.939Z,6.14
2023-03-22T06:22:57.761Z,6.48
2023-03-22T06:25:25.192Z,6.91
2023-03-22T06:27:52.731Z,7.32
2023-03-22T06:30:20.950Z,7.65
2023-03-22T06:33:11.024Z,8.13
2023-03-22T06:35:41.858Z,8.87
2023-03-22T06:38:12.122Z,9.34
2023-03-22T06:40:39.382Z,10.23
2023-03-22T06:43:07.394Z,10.40
2023-03-22T06:45:36.892Z,10.78
2023-03-22T06:48:05.363Z,11.18
2023-03-22T06:50:50.832Z,11.23
2023-03-22T06:53:27.568Z,11.57
2023-03-22T06:55:55.505Z,11.57
2023-03-22T06:58:25.229Z,11.73
2023-03-22T07:00:52.658Z,11.99
2023-03-22T07:03:23.938Z,12.52
2023-03-22T07:06:11.359Z,12.46
2023-03-22T07:08:42.542Z,13.03
2023-03-22T07:11:12.018Z,13.32
2023-03-22T07:13:39.062Z,13.38
2023-03-22T07:16:11.443Z,13.99
2023-03-22T07:18:46.488Z,14.10
2023-03-22T07:21:14.093Z,14.41
2023-03-22T07:23:43.176Z,14.77
2023-03-22T07:26:14.334Z,14.95
2023-03-22T07:28:44.849Z,15.62
2023-03-22T07:31:14.397Z,16.33
2023-03-22T07:34:02.924Z,17.81
2023-03-22T07:36:33.557Z,16.26
2023-03-22T07:39:01.689Z,16.37
2023-03-22T07:41:32.905Z,16.78
2023-03-22T07:44:20.892Z,16.76
2023-03-22T07:47:00.758Z,17.60
2023-03-22T07:49:36.982Z,17.33
2023-03-22T07:52:08.574Z,17.12
2023-03-22T07:54:36.068Z,17.79
2023-03-22T07:57:06.812Z,17.18
2023-03-22T07:59:40.012Z,17.49
2023-03-22T08:02:10.019Z,17.85
2023-03-22T08:04:42.403Z,18.76
2023-03-22T08:07:26.246Z,19.22
2023-03-22T08:09:53.681Z,18.94
2023-03-22T08:12:21.492Z,19.58
2023-03-22T08:14:55.653Z,20.35
2023-03-22T08:17:26.244Z,19.70
2023-03-22T08:19:56.353Z,20.24
2023-03-22T08:22:35.267Z,19.83
2023-03-22T08:25:25.390Z,19.41
2023-03-22T08:27:54.205Z,19.45
2023-03-22T08:30:22.345Z,20.14
2023-03-22T08:32:49.433Z,20.29
2023-03-22T08:35:16.610Z,20.34
2023-03-22T08:37:43.762Z,20.66
2023-03-22T08:40:11.728Z,21.08
2023-03-22T08:42:43.757Z,21.65
2023-03-22T08:45:11.118Z,21.85
2023-03-22T08:47:45.513Z,20.04
2023-03-22T08:50:13.157Z,20.13
2023-03-22T08:52:47.677Z,20.68
2023-03-22T08:55:26.291Z,21.58
2023-03-22T08:57:59.834Z,21.01
2023-03-22T09:00:48.163Z,21.30
2023-03-22T09:03:24.964Z,21.78
2023-03-22T09:05:53.202Z,21.87
2023-03-22T09:08:20.970Z,22.16
2023-03-22T09:10:54.046Z,22.93
2023-03-22T09:13:23.207Z,23.71
2023-03-22T09:15:57.176Z,22.53
2023-03-22T09:18:30.927Z,23.04
2023-03-22T09:21:01.735Z,23.44
2023-03-22T09:26:08.375Z,19.78
2023-03-22T09:28:37.085Z,21.41
2023-03-22T09:31:09.401Z,22.99
2023-03-22T09:33:38.718Z,24.02
2023-03-22T09:36:06.720Z,23.84
2023-03-22T09:38:35.693Z,23.52
2023-03-22T09:41:06.606Z,23.64
2023-03-22T09:43:43.754Z,22.56
2023-03-22T09:46:29.384Z,20.87
2023-03-22T09:49:01.603Z,22.06
2023-03-22T09:51:41.595Z,21.35
2023-03-22T09:54:18.523Z,22.36
2023-03-22T09:56:54.484Z,23.54
2023-03-22T09:59:52.737Z,23.89
2023-03-22T10:02:45.339Z,22.76
2023-03-22T10:05:45.485Z,22.12
2023-03-22T10:08:22.299Z,22.71
2023-03-22T10:10:51.929Z,24.18
2023-03-22T10:14:02.444Z,24.71
2023-03-22T10:16:33.458Z,24.73
2023-03-22T10:19:25.614Z,23.49
2023-03-22T10:21:55.621Z,23.56
2023-03-22T10:24:33.288Z,22.38
2023-03-22T10:27:01.042Z,23.60
2023-03-22T10:29:42.071Z,23.95
2023-03-22T10:32:57.011Z,24.00
2023-03-22T10:35:25.846Z,22.84
2023-03-22T10:37:55.190Z,23.08
2023-03-22T10:40:32.819Z,22.29
2023-03-22T10:43:06.117Z,22.67
2023-03-22T10:45:35.575Z,22.95
2023-03-22T10:48:13.787Z,22.77
2023-03-22T10:50:45.328Z,23.21
2023-03-22T10:53:24.036Z,24.92
2023-03-22T10:55:51.318Z,25.11
2023-03-22T10:58:23.540Z,24.43
2023-03-22T11:00:59.608Z,22.17
2023-03-22T11:03:43.027Z,23.37
2023-03-22T11:06:24.759Z,23.58
2023-03-22T11:08:59.984Z,24.89
2023-03-22T11:11:36.010Z,24.99
2023-03-22T11:14:15.907Z,23.70
2023-03-22T11:17:02.580Z,25.20
2023-03-22T11:19:37.785Z,25.01
2023-03-22T11:22:22.846Z,25.67
2023-03-22T11:24:51.735Z,26.60
2023-03-22T11:27:30.288Z,25.69
2023-03-22T11:30:28.793Z,24.10
2023-03-22T11:33:25.022Z,22.93
2023-03-22T11:36:03.442Z,23.12
2023-03-22T11:38:38.290Z,23.66
2023-03-22T11:41:23.784Z,24.50
2023-03-22T11:43:57.194Z,23.95
2023-03-22T11:46:25.368Z,23.65
2023-03-22T11:49:00.445Z,23.40
2023-03-22T11:51:39.476Z,23.41
2023-03-22T11:54:24.300Z,24.78
2023-03-22T11:56:51.517Z,25.82
2023-03-22T11:59:29.259Z,25.75
2023-03-22T12:02:16.301Z,26.31
2023-03-22T12:04:46.849Z,22.86
2023-03-22T12:07:20.939Z,22.79
2023-03-22T12:10:16.195Z,23.52
2023-03-22T12:12:53.666Z,24.73
2023-03-22T12:15:23.836Z,25.29
2023-03-22T12:18:13.697Z,26.58
2023-03-22T12:20:56.293Z,26.25
2023-03-22T12:23:26.859Z,25.04
2023-03-22T12:26:02.795Z,26.25
2023-03-22T12:28:56.365Z,26.15
2023-03-22T12:31:39.433Z,25.56
2023-03-22T12:34:14.220Z,26.53
2023-03-22T12:36:49.989Z,26.77
2023-03-22T12:39:23.447Z,27.02
2023-03-22T12:41:54.104Z,27.92
2023-03-22T12:44:34.022Z,28.44
2023-03-22T12:47:34.294Z,29.15
2023-03-22T12:50:42.907Z,29.64
2023-03-22T12:53:19.112Z,30.29
2023-03-22T12:55:47.502Z,29.69
2023-03-22T12:58:23.425Z,29.53
2023-03-22T13:01:11.203Z,29.63
2023-03-22T13:03:46.398Z,28.42
2023-03-22T13:06:44.050Z,26.33
2023-03-22T13:09:17.476Z,25.72
2023-03-22T13:12:17.592Z,24.91
2023-03-22T13:14:50.680Z,24.45
2023-03-22T13:17:23.767Z,25.63
2023-03-22T13:20:06.747Z,26.08
2023-03-22T13:22:36.457Z,26.26
2023-03-22T13:25:13.243Z,27.10
2023-03-22T13:27:46.287Z,25.98
2023-03-22T13:30:26.948Z,26.37
2023-03-22T13:33:03.500Z,25.40
2023-03-22T13:35:54.278Z,25.57
2023-03-22T13:38:25.932Z,25.79
2023-03-22T13:41:02.867Z,24.96
2023-03-22T13:43:48.417Z,23.64
2023-03-22T13:46:21.475Z,22.93
2023-03-22T13:48:49.845Z,22.75
2023-03-22T13:51:23.495Z,22.48
2023-03-22T13:54:18.069Z,22.38
2023-03-22T13:56:54.181Z,22.25
2023-03-22T13:59:27.937Z,22.38
2023-03-22T14:02:07.484Z,22.32
2023-03-22T14:04:47.503Z,21.91
2023-03-22T14:07:46.316Z,21.71
2023-03-22T14:10:35.417Z,21.30
2023-03-22T14:13:23.837Z,20.63
2023-03-22T14:16:03.067Z,20.62
2023-03-22T14:18:33.004Z,20.82
2023-03-22T14:21:03.965Z,20.95
